Time;durP1;ratioP1;P1;durP2;ratioP2;P2;SDS_P1;SDS_P2;PMS_P1;PMS_P2;Temp;Humidity;BMP_temperature;BMP_pressure;BME280_temperature;BME280_humidity;BME280_pressure;Samples;Min_cycle;Max_cycle;Signal;HPM_P1;HPM_P2
2021/08/27 00:01:19;;;;;;;18.92;5.20;;;;;;;16.29;68.75;101361.84;5019266;28;20065;-63
2021/08/27 00:03:47;;;;;;;19.25;5.93;;;;;;;16.26;68.75;101354.19;5015364;28;20481;-63
2021/08/27 00:06:14;;;;;;;18.20;5.68;;;;;;;16.32;68.64;101350.06;5030070;28;20053;-63
2021/08/27 00:08:42;;;;;;;18.02;5.35;;;;;;;16.54;68.33;101357.31;5013867;28;20060;-68
2021/08/27 00:11:10;;;;;;;21.15;5.63;;;;;;;16.71;67.30;101346.06;5015129;28;20053;-69
2021/08/27 00:13:38;;;;;;;18.92;4.97;;;;;;;17.04;66.19;101344.13;5037989;28;20053;-69
2021/08/27 00:16:05;;;;;;;18.10;5.60;;;;;;;17.19;65.30;101343.50;5054825;28;20056;-68
2021/08/27 00:18:32;;;;;;;17.85;5.68;;;;;;;16.20;68.93;101349.16;5030544;28;20060;-63
2021/08/27 00:21:00;;;;;;;19.80;6.10;;;;;;;16.34;68.82;101349.72;5034580;28;20045;-68
2021/08/27 00:23:27;;;;;;;19.20;5.50;;;;;;;16.50;68.31;101339.66;5035022;28;20056;-69
2021/08/27 00:25:55;;;;;;;18.05;4.53;;;;;;;16.86;67.04;101346.25;5034596;28;20417;-68
2021/08/27 00:28:22;;;;;;;16.00;5.28;;;;;;;16.65;67.43;101339.88;5033310;28;20056;-64
2021/08/27 00:30:49;;;;;;;17.23;4.68;;;;;;;16.44;68.55;101341.00;5034978;28;20053;-64
2021/08/27 00:33:17;;;;;;;19.20;5.22;;;;;;;16.36;68.95;101339.91;5034179;28;20496;-64
2021/08/27 00:35:44;;;;;;;21.90;5.72;;;;;;;16.24;69.33;101339.00;5030065;28;20453;-63
2021/08/27 00:38:14;;;;;;;18.35;5.30;;;;;;;16.25;69.17;101337.84;5013325;28;20045;-63
2021/08/27 00:40:43;;;;;;;17.58;5.68;;;;;;;16.17;69.59;101339.53;5014561;28;20547;-63
2021/08/27 00:43:14;;;;;;;22.17;5.05;;;;;;;16.30;69.44;101340.44;5014395;28;20053;-64
2021/08/27 00:45:46;;;;;;;21.90;6.07;;;;;;;16.17;69.64;101342.31;5014495;28;20072;-64
2021/08/27 00:48:14;;;;;;;20.98;5.32;;;;;;;16.21;69.93;101345.22;5014533;28;20057;-63
2021/08/27 00:50:42;;;;;;;20.40;5.35;;;;;;;16.32;69.34;101336.16;5014702;28;20064;-63
2021/08/27 00:53:09;;;;;;;20.40;6.28;;;;;;;16.22;69.74;101332.94;4997939;28;20061;-62
2021/08/27 00:55:36;;;;;;;21.52;5.55;;;;;;;16.47;69.15;101332.00;4995970;28;20053;-63
2021/08/27 00:58:05;;;;;;;21.73;6.13;;;;;;;16.51;68.80;101335.75;5014831;28;20435;-63
2021/08/27 01:00:34;;;;;;;22.92;6.55;;;;;;;16.52;68.95;101324.28;5014230;28;20085;-62
2021/08/27 01:03:02;;;;;;;17.03;6.20;;;;;;;16.71;67.78;101327.41;5014045;28;20042;-62
2021/08/27 01:05:33;;;;;;;20.90;6.38;;;;;;;16.59;68.37;101327.34;5013869;28;20303;-63
2021/08/27 01:08:15;;;;;;;19.55;5.75;;;;;;;16.67;68.22;101325.63;5012639;28;20069;-63
2021/08/27 01:10:46;;;;;;;21.92;6.10;;;;;;;16.36;69.62;101327.94;5015618;28;20049;-63
2021/08/27 01:13:18;;;;;;;23.25;6.22;;;;;;;16.14;70.50;101326.31;5028956;28;20041;-63
2021/08/27 01:15:53;;;;;;;21.30;5.95;;;;;;;16.28;70.19;101321.31;5052444;28;20045;-63
2021/08/27 01:18:39;;;;;;;25.67;6.28;;;;;;;16.11;71.13;101320.59;5052544;28;20052;-63
2021/08/27 01:21:30;;;;;;;20.50;6.65;;;;;;;16.07;71.14;101322.41;5053291;28;20071;-64
2021/08/27 01:24:00;;;;;;;18.40;5.88;;;;;;;16.22;70.74;101325.44;5052167;28;20053;-62
2021/08/27 01:26:40;;;;;;;18.77;5.70;;;;;;;16.17;70.87;101317.28;5042695;28;20058;-63
2021/08/27 01:29:08;;;;;;;29.02;7.03;;;;;;;16.36;70.43;101308.50;4996543;28;20050;-64
2021/08/27 01:31:42;;;;;;;20.45;5.85;;;;;;;16.19;70.84;101326.13;4995668;28;20064;-63
2021/08/27 01:34:41;;;;;;;22.80;6.65;;;;;;;16.00;71.73;101325.72;5013777;28;20053;-63
2021/08/27 01:37:14;;;;;;;21.05;6.07;;;;;;;16.00;72.01;101320.19;4995930;28;20050;-63
2021/08/27 01:39:48;;;;;;;24.95;6.40;;;;;;;15.89;72.28;101320.88;5012747;28;20056;-63
2021/08/27 01:42:17;;;;;;;22.40;6.95;;;;;;;15.92;71.90;101320.22;5012866;28;20045;-63
2021/08/27 01:44:46;;;;;;;22.05;6.15;;;;;;;15.79;72.82;101320.09;5015258;28;20049;-63
2021/08/27 01:47:23;;;;;;;21.17;6.32;;;;;;;15.92;72.44;101320.22;4996431;28;20054;-63
2021/08/27 01:49:51;;;;;;;22.42;6.10;;;;;;;16.27;70.86;101319.66;5012302;28;20428;-62
2021/08/27 01:52:18;;;;;;;25.67;7.05;;;;;;;16.20;71.07;101319.38;5012286;28;20050;-63
2021/08/27 01:54:47;;;;;;;17.00;5.95;;;;;;;16.28;70.64;101323.28;5013646;28;20064;-63
2021/08/27 01:57:14;;;;;;;26.00;7.30;;;;;;;16.37;70.81;101327.63;5012379;28;20077;-63
2021/08/27 01:59:43;;;;;;;25.60;6.85;;;;;;;16.13;71.35;101326.63;4996121;28;20057;-68
2021/08/27 02:02:14;;;;;;;20.83;6.53;;;;;;;16.00;71.82;101324.91;5016661;28;20046;-68
2021/08/27 02:04:46;;;;;;;21.90;6.47;;;;;;;15.90;72.51;101333.63;5012134;28;20057;-68
2021/08/27 02:07:14;;;;;;;21.40;6.28;;;;;;;15.61;73.62;101332.44;4998906;28;20053;-68
2021/08/27 02:09:42;;;;;;;25.92;7.00;;;;;;;15.49;74.27;101335.09;5015605;28;20054;-67
2021/08/27 02:12:09;;;;;;;20.73;6.35;;;;;;;15.45;74.78;101325.78;5017307;28;20060;-68
2021/08/27 02:14:38;;;;;;;25.63;7.20;;;;;;;15.67;73.80;101324.75;5034837;28;20164;-69
2021/08/27 02:17:06;;;;;;;24.73;6.95;;;;;;;15.83;73.36;101327.78;5035792;28;20045;-67
2021/08/27 02:19:35;;;;;;;25.00;6.88;;;;;;;15.92;72.58;101325.78;5014870;28;20141;-68
2021/08/27 02:22:04;;;;;;;28.42;7.47;;;;;;;15.62;74.31;101322.16;5017046;28;20563;-68
2021/08/27 02:24:35;;;;;;;30.93;7.03;;;;;;;15.76;73.54;101331.06;5015855;28;20042;-68
2021/08/27 02:27:05;;;;;;;24.50;7.55;;;;;;;15.56;74.32;101332.63;5015934;28;20293;-68
2021/08/27 02:29:33;;;;;;;21.38;6.22;;;;;;;15.65;73.89;101333.41;5015844;28;20042;-68
2021/08/27 02:32:02;;;;;;;24.98;7.85;;;;;;;15.99;72.99;101335.19;5015698;28;20061;-68
2021/08/27 02:34:32;;;;;;;26.52;6.97;;;;;;;15.49;74.60;101329.53;5031636;28;20065;-68
2021/08/27 02:37:00;;;;;;;21.65;6.80;;;;;;;15.51;74.70;101331.97;5013614;28;20413;-69
2021/08/27 02:39:29;;;;;;;22.17;6.47;;;;;;;15.45;74.64;101338.84;5016691;28;20054;-69
2021/08/27 02:41:57;;;;;;;25.98;6.97;;;;;;;15.16;76.12;101336.75;5015529;28;20436;-68
2021/08/27 02:44:27;;;;;;;28.38;7.25;;;;;;;15.30;76.08;101331.03;5015300;28;20045;-69
2021/08/27 02:46:54;;;;;;;29.48;7.22;;;;;;;15.25;75.84;101336.75;5016628;28;20604;-68
2021/08/27 02:49:23;;;;;;;18.27;6.53;;;;;;;15.62;75.12;101328.50;5015648;28;20054;-69
2021/08/27 02:52:09;;;;;;;25.35;6.50;;;;;;;15.79;73.88;101333.97;5031798;28;20041;-69
2021/08/27 02:55:07;;;;;;;24.40;6.97;;;;;;;15.39;74.94;101331.81;5017816;28;20054;-64
2021/08/27 02:57:43;;;;;;;28.67;7.43;;;;;;;15.56;74.74;101340.13;5015309;28;20050;-68
2021/08/27 03:00:11;;;;;;;22.27;6.95;;;;;;;15.59;74.28;101342.22;5015463;28;20054;-64
2021/08/27 03:02:40;;;;;;;26.00;6.90;;;;;;;15.25;75.59;101343.13;5016449;28;20478;-64
2021/08/27 03:05:12;;;;;;;29.67;8.00;;;;;;;15.36;75.59;101341.59;4998574;28;20054;-64
2021/08/27 03:07:43;;;;;;;24.55;6.57;;;;;;;15.63;74.50;101332.09;5016427;28;20378;-63
2021/08/27 03:10:19;;;;;;;19.88;5.70;;;;;;;15.69;74.32;101333.56;5017498;28;20053;-64
2021/08/27 03:12:51;;;;;;;28.25;6.03;;;;;;;15.87;73.31;101331.50;5007134;28;20072;-64
2021/08/27 03:15:41;;;;;;;25.75;6.07;;;;;;;15.65;73.96;101333.41;5054411;28;20124;-69
2021/08/27 03:18:20;;;;;;;21.38;6.38;;;;;;;15.33;75.08;101324.78;5054478;28;20064;-69
2021/08/27 03:20:51;;;;;;;22.27;7.88;;;;;;;15.28;75.47;101322.19;5055543;28;20049;-69
2021/08/27 03:23:19;;;;;;;23.75;6.90;;;;;;;15.22;75.80;101329.09;5054298;28;20052;-69
2021/08/27 03:25:47;;;;;;;22.33;6.97;;;;;;;15.26;75.96;101325.31;5054406;28;20063;-68
2021/08/27 03:28:20;;;;;;;25.17;7.38;;;;;;;15.53;74.84;101326.91;5030489;28;20049;-68
2021/08/27 03:30:52;;;;;;;20.08;6.78;;;;;;;15.40;75.61;101323.19;5018049;28;20064;-69
2021/08/27 03:33:22;;;;;;;23.27;6.72;;;;;;;15.42;75.28;101318.13;5034041;28;20488;-69
2021/08/27 03:35:51;;;;;;;23.13;6.43;;;;;;;15.46;75.25;101327.41;5035177;28;20438;-68
2021/08/27 03:38:20;;;;;;;21.27;6.30;;;;;;;15.18;76.41;101323.38;5001866;28;20056;-68
2021/08/27 03:40:49;;;;;;;20.63;6.68;;;;;;;15.26;76.11;101328.09;5018002;28;20049;-69
2021/08/27 03:43:17;;;;;;;21.00;6.63;;;;;;;15.39;75.57;101323.50;5015968;28;20056;-63
2021/08/27 03:45:45;;;;;;;18.50;6.30;;;;;;;15.20;76.18;101318.28;5033327;28;20053;-63
2021/08/27 03:48:12;;;;;;;23.25;6.75;;;;;;;15.41;75.60;101332.34;5034220;28;20049;-63
2021/08/27 03:50:40;;;;;;;18.88;5.57;;;;;;;15.28;75.83;101320.25;5033756;28;20520;-63
2021/08/27 03:53:08;;;;;;;20.92;6.40;;;;;;;15.36;75.57;101321.38;5034558;28;20481;-63
2021/08/27 03:55:35;;;;;;;20.85;6.43;;;;;;;15.32;75.77;101318.47;5035129;28;20053;-68
2021/08/27 03:58:03;;;;;;;25.13;6.15;;;;;;;15.33;75.98;101314.53;5035467;28;20093;-64
2021/08/27 04:00:38;;;;;;;21.17;6.80;;;;;;;15.34;75.82;101313.34;5025549;28;20050;-68
2021/08/27 04:03:06;;;;;;;25.67;7.40;;;;;;;15.39;75.57;101321.53;5015349;28;20056;-63
2021/08/27 04:05:33;;;;;;;21.75;6.43;;;;;;;15.54;75.18;101315.47;5014657;28;20054;-63
2021/08/27 04:08:01;;;;;;;21.08;6.13;;;;;;;15.64;74.84;101314.28;5015183;28;20054;-63
2021/08/27 04:10:28;;;;;;;21.15;6.70;;;;;;;15.33;75.75;101317.28;5015463;28;20058;-68
2021/08/27 04:12:55;;;;;;;28.63;7.20;;;;;;;15.27;76.59;101315.81;5025464;28;20072;-68
2021/08/27 04:15:23;;;;;;;20.80;6.35;;;;;;;15.43;75.89;101318.94;5054715;28;20045;-69
2021/08/27 04:17:51;;;;;;;24.77;6.78;;;;;;;15.36;76.25;101313.84;5033257;28;20052;-68
2021/08/27 04:20:18;;;;;;;24.17;6.20;;;;;;;15.29;76.09;101308.00;5013693;28;20046;-63
2021/08/27 04:22:45;;;;;;;18.40;7.07;;;;;;;15.16;77.12;101311.78;4997551;28;20058;-68
2021/08/27 04:25:13;;;;;;;18.98;6.65;;;;;;;15.29;76.74;101313.53;5013443;28;20042;-68
2021/08/27 04:27:40;;;;;;;27.88;6.63;;;;;;;15.44;76.17;101306.69;5014911;28;20152;-68
2021/08/27 04:30:08;;;;;;;23.77;6.88;;;;;;;15.45;75.81;101306.34;4996819;28;20547;-68
2021/08/27 04:32:35;;;;;;;23.45;6.88;;;;;;;15.25;76.62;101314.53;5014890;28;20174;-68
2021/08/27 04:35:04;;;;;;;31.42;7.32;;;;;;;15.35;76.48;101311.41;5014210;28;20493;-68
2021/08/27 04:37:32;;;;;;;27.60;7.22;;;;;;;15.27;77.02;101315.03;5026145;28;20048;-68
2021/08/27 04:39:59;;;;;;;27.85;6.82;;;;;;;15.18;77.37;101314.22;5033108;28;20050;-68
2021/08/27 04:42:26;;;;;;;24.30;7.85;;;;;;;15.33;76.87;101319.25;5033275;28;20057;-67
2021/08/27 04:44:54;;;;;;;25.73;7.18;;;;;;;15.34;76.83;101318.91;5032904;28;20061;-68
2021/08/27 04:47:21;;;;;;;20.52;7.18;;;;;;;15.53;75.92;101324.13;5034694;28;20057;-68
2021/08/27 04:49:48;;;;;;;24.90;6.63;;;;;;;15.28;76.96;101323.03;5033861;28;20069;-69
2021/08/27 04:52:16;;;;;;;25.05;6.68;;;;;;;15.36;76.77;101316.63;5034400;28;20041;-68
2021/08/27 04:54:43;;;;;;;25.05;7.63;;;;;;;15.55;76.43;101328.19;5017010;28;20050;-68
2021/08/27 04:57:10;;;;;;;25.25;6.43;;;;;;;15.65;75.95;101324.25;5014356;28;20046;-68
2021/08/27 04:59:42;;;;;;;21.98;6.70;;;;;;;15.51;76.52;101329.19;5014473;28;20058;-63
2021/08/27 05:02:10;;;;;;;24.40;7.10;;;;;;;15.38;77.10;101336.53;5014493;28;20050;-64
2021/08/27 05:04:38;;;;;;;21.30;6.80;;;;;;;15.67;76.37;101333.88;5028394;28;20054;-64
2021/08/27 05:07:05;;;;;;;25.38;7.45;;;;;;;15.59;75.95;101345.00;5012440;28;20054;-63
2021/08/27 05:09:32;;;;;;;26.40;7.80;;;;;;;15.29;77.79;101346.06;5014294;28;20061;-64
2021/08/27 05:11:59;;;;;;;23.38;7.68;;;;;;;15.29;77.73;101346.84;5018265;28;20045;-68
2021/08/27 05:14:27;;;;;;;28.77;8.30;;;;;;;15.28;78.15;101348.00;5050646;28;20345;-68
2021/08/27 05:16:54;;;;;;;21.95;7.25;;;;;;;15.41;77.59;101351.78;5053767;28;20052;-68
2021/08/27 05:19:21;;;;;;;27.40;7.53;;;;;;;15.42;77.75;101359.75;5053733;28;20602;-68
2021/08/27 05:21:49;;;;;;;31.20;7.88;;;;;;;15.34;77.99;101351.44;5051938;28;20064;-69
2021/08/27 05:24:16;;;;;;;31.38;7.60;;;;;;;15.47;77.98;101361.53;5053701;28;20049;-67
2021/08/27 05:26:43;;;;;;;29.83;7.38;;;;;;;15.38;78.08;101363.47;5053817;28;20044;-69
2021/08/27 05:29:11;;;;;;;30.83;8.30;;;;;;;15.43;77.89;101357.81;5013593;28;20057;-68
2021/08/27 05:31:41;;;;;;;28.83;8.50;;;;;;;15.41;78.00;101360.91;5014501;28;20060;-63
2021/08/27 05:34:08;;;;;;;25.63;8.15;;;;;;;15.42;78.05;101365.31;5012126;28;20068;-68
2021/08/27 05:36:36;;;;;;;23.13;7.75;;;;;;;15.78;76.72;101364.88;5013645;28;20053;-68
2021/08/27 05:39:03;;;;;;;22.63;8.88;;;;;;;15.82;76.72;101367.78;5014104;28;20081;-68
2021/08/27 05:41:33;;;;;;;28.73;7.80;;;;;;;15.55;76.87;101364.28;5028076;28;20060;-69
2021/08/27 05:44:01;;;;;;;26.30;7.88;;;;;;;15.75;76.88;101362.75;5017412;28;20536;-68
2021/08/27 05:46:28;;;;;;;24.88;8.25;;;;;;;15.42;77.90;101368.09;5029001;28;20050;-68
2021/08/27 05:48:55;;;;;;;35.60;8.20;;;;;;;15.50;77.86;101369.19;5037460;28;20052;-68
2021/08/27 05:51:23;;;;;;;26.55;7.05;;;;;;;15.59;77.75;101373.59;5035070;28;20057;-68
2021/08/27 05:53:50;;;;;;;24.00;7.50;;;;;;;15.43;78.65;101380.81;5036356;28;20060;-62
2021/08/27 05:56:17;;;;;;;27.30;8.27;;;;;;;15.25;79.24;101379.19;5037055;28;20150;-63
2021/08/27 05:58:47;;;;;;;28.98;8.20;;;;;;;15.27;79.85;101387.19;5026860;28;20405;-62
2021/08/27 06:01:15;;;;;;;25.88;8.15;;;;;;;15.18;79.98;101387.22;5018705;28;20050;-68
2021/08/27 06:03:42;;;;;;;27.73;8.68;;;;;;;15.12;80.51;101387.69;5035741;28;20057;-62
2021/08/27 06:06:10;;;;;;;25.83;7.85;;;;;;;15.15;80.77;101392.59;5018757;28;20050;-64
2021/08/27 06:08:37;;;;;;;29.38;9.48;;;;;;;15.11;80.86;101388.84;5030895;28;20050;-68
2021/08/27 06:11:04;;;;;;;33.42;9.07;;;;;;;14.93;81.96;101385.25;5022373;28;20053;-68
2021/08/27 06:13:32;;;;;;;24.70;8.43;;;;;;;14.95;82.01;101391.28;5031831;28;20050;-63
2021/08/27 06:16:00;;;;;;;29.52;8.38;;;;;;;15.08;81.48;101395.06;5042100;28;20052;-63
2021/08/27 06:18:27;;;;;;;31.95;7.88;;;;;;;15.30;80.73;101398.47;5056497;28;20059;-63
2021/08/27 06:20:55;;;;;;;27.42;8.10;;;;;;;15.30;80.66;101398.47;5033937;28;20504;-63
2021/08/27 06:23:22;;;;;;;29.38;9.27;;;;;;;15.38;80.30;101394.84;5021245;28;20042;-63
2021/08/27 06:25:50;;;;;;;30.45;9.05;;;;;;;15.79;79.06;101395.09;5025768;28;20049;-63
2021/08/27 06:28:17;;;;;;;25.70;8.57;;;;;;;15.41;79.67;101396.97;5044104;28;20519;-63
2021/08/27 06:30:45;;;;;;;29.15;8.95;;;;;;;15.69;79.17;101397.44;5031206;28;20532;-68
2021/08/27 06:33:12;;;;;;;33.65;10.98;;;;;;;15.53;79.76;101399.91;5028074;28;20114;-68
2021/08/27 06:35:39;;;;;;;32.38;10.68;;;;;;;15.53;80.32;101399.91;5032538;28;20038;-69
2021/08/27 06:41:07;;;;;;;36.63;10.27;;;;;;;15.77;79.87;101402.13;5031927;28;20064;-66
2021/08/27 06:43:37;;;;;;;31.33;10.73;;;;;;;16.01;79.19;101401.56;5022734;28;20288;-65
2021/08/27 06:46:06;;;;;;;;;;;;;;;16.10;78.68;101410.69;5029918;28;20056;-67
2021/08/27 06:48:35;;;;;;;37.47;11.60;;;;;;;16.14;78.42;101425.53;5027800;28;19928;-66
2021/08/27 06:51:03;;;;;;;34.58;11.57;;;;;;;16.27;78.26;101430.06;5025968;28;20080;-68
2021/08/27 06:53:30;;;;;;;33.92;11.55;;;;;;;16.16;78.23;101415.72;5030355;28;20045;-67
2021/08/27 06:55:58;;;;;;;35.85;11.60;;;;;;;16.21;77.88;101429.44;5034914;28;20052;-67
2021/08/27 06:58:25;;;;;;;39.35;12.30;;;;;;;16.07;79.19;101428.03;5028922;28;20045;-67
2021/08/27 07:00:53;;;;;;;31.90;10.75;;;;;;;16.32;77.69;101430.69;5026668;28;20057;-69
2021/08/27 07:03:20;;;;;;;32.92;11.52;;;;;;;16.39;77.35;101430.16;5034780;28;20456;-64
2021/08/27 07:05:49;;;;;;;24.48;10.45;;;;;;;16.57;76.51;101420.59;5043445;28;20502;-64
2021/08/27 07:08:16;;;;;;;32.10;12.45;;;;;;;16.52;76.76;101418.84;5041262;28;20436;-64
2021/08/27 07:10:44;;;;;;;32.58;12.48;;;;;;;16.20;77.95;101429.75;5033532;28;20053;-64
2021/08/27 07:13:12;;;;;;;31.48;12.93;;;;;;;16.08;78.51;101441.59;5035909;28;20037;-64
2021/08/27 07:15:40;;;;;;;37.42;13.40;;;;;;;16.42;77.31;101435.06;5027618;28;20045;-63
2021/08/27 07:18:08;;;;;;;30.10;12.40;;;;;;;16.59;76.33;101435.00;5030998;28;20441;-63
2021/08/27 07:20:35;;;;;;;29.77;12.20;;;;;;;17.01;74.80;101433.06;5032436;28;20050;-63
2021/08/27 07:23:02;;;;;;;29.58;11.18;;;;;;;16.83;74.83;101437.94;5031659;28;20049;-63
2021/08/27 07:25:30;;;;;;;32.00;11.93;;;;;;;17.05;73.92;101436.81;5030972;28;20037;-65
2021/08/27 07:27:57;;;;;;;27.83;12.25;;;;;;;17.28;73.25;101436.13;5031674;28;20084;-65
2021/08/27 07:30:25;;;;;;;31.98;13.15;;;;;;;17.39;72.01;101445.69;5029837;28;20053;-65
2021/08/27 07:32:52;;;;;;;27.50;12.50;;;;;;;17.31;72.05;101443.78;5023513;28;20053;-64
2021/08/27 07:35:19;;;;;;;28.90;12.48;;;;;;;17.64;71.05;101441.06;5003716;28;20409;-64
2021/08/27 07:37:47;;;;;;;33.45;12.27;;;;;;;17.70;69.99;101440.50;5021804;28;20049;-69
2021/08/27 07:40:15;;;;;;;28.25;11.57;;;;;;;17.30;71.11;101444.94;5020810;28;20124;-65
2021/08/27 07:42:43;;;;;;;34.50;12.00;;;;;;;17.53;70.37;101442.63;5023359;28;20057;-64
2021/08/27 07:45:12;;;;;;;25.92;11.27;;;;;;;17.37;70.87;101455.53;5020781;28;20057;-63
2021/08/27 07:47:41;;;;;;;27.88;11.95;;;;;;;17.34;70.93;101468.19;5032494;28;20060;-64
2021/08/27 07:50:09;;;;;;;32.63;11.13;;;;;;;17.45;70.43;101457.44;5025041;28;20053;-66
2021/08/27 07:52:37;;;;;;;28.23;10.73;;;;;;;17.62;69.65;101460.09;5009537;28;20531;-64
2021/08/27 07:55:05;;;;;;;27.25;11.13;;;;;;;17.79;69.20;101452.38;5023826;28;20061;-63
2021/08/27 07:57:33;;;;;;;23.63;10.27;;;;;;;17.93;68.62;101438.94;5020935;28;20066;-65
2021/08/27 08:00:00;;;;;;;32.67;11.30;;;;;;;17.90;67.85;101447.97;5031155;28;20072;-64
2021/08/27 08:02:31;;;;;;;38.53;12.35;;;;;;;17.42;69.57;101450.56;5028420;28;20041;-64
2021/08/27 08:04:58;;;;;;;25.85;10.98;;;;;;;17.14;70.55;101448.72;5024746;28;20076;-65
2021/08/27 08:07:26;;;;;;;29.58;11.95;;;;;;;17.17;70.40;101448.84;5018588;28;20413;-64
2021/08/27 08:09:53;;;;;;;29.73;10.90;;;;;;;17.61;69.03;101450.91;5034087;28;20504;-64
2021/08/27 08:12:20;;;;;;;28.80;10.60;;;;;;;18.17;67.33;101451.28;5034952;28;20566;-64
2021/08/27 08:14:47;;;;;;;28.40;9.93;;;;;;;18.10;66.59;101448.28;5029433;28;20056;-64
2021/08/27 08:17:15;;;;;;;25.05;9.27;;;;;;;18.35;65.22;101449.91;5030943;28;20054;-64
2021/08/27 08:19:42;;;;;;;27.23;10.32;;;;;;;18.16;64.87;101452.44;5025234;28;20116;-64
2021/08/27 08:22:09;;;;;;;25.73;10.07;;;;;;;18.02;65.87;101450.00;5031491;28;20060;-68
2021/08/27 08:24:36;;;;;;;22.17;9.13;;;;;;;18.15;65.01;101457.19;5026223;28;20049;-68
2021/08/27 08:27:04;;;;;;;30.02;9.70;;;;;;;17.98;65.44;101455.44;5025121;28;20492;-68
2021/08/27 08:29:32;;;;;;;25.30;9.15;;;;;;;18.15;63.71;101461.97;5032123;28;20049;-68
2021/08/27 08:31:59;;;;;;;19.05;8.40;;;;;;;18.38;62.77;101455.59;5025493;28;20515;-64
2021/08/27 08:34:26;;;;;;;21.23;7.80;;;;;;;18.33;62.06;101458.63;5032023;28;20065;-67
2021/08/27 08:36:54;;;;;;;18.85;6.18;;;;;;;18.40;61.05;101463.63;4992663;28;20050;-66
2021/08/27 08:39:21;;;;;;;18.48;6.57;;;;;;;18.24;61.47;101468.25;5030631;28;20052;-68
2021/08/27 08:41:48;;;;;;;20.88;7.07;;;;;;;18.16;61.18;101463.59;5020308;28;20072;-68
2021/08/27 08:44:16;;;;;;;21.27;6.53;;;;;;;18.14;60.96;101468.69;5021095;28;20049;-68
2021/08/27 08:46:45;;;;;;;16.90;5.75;;;;;;;18.09;60.47;101461.38;5025457;28;20041;-64
2021/08/27 08:49:13;;;;;;;15.57;5.50;;;;;;;18.03;60.95;101461.97;5036873;28;20046;-64
2021/08/27 08:51:44;;;;;;;16.77;5.75;;;;;;;18.50;59.86;101464.00;5027196;28;20045;-65
2021/08/27 08:54:14;;;;;;;15.80;5.80;;;;;;;18.46;59.09;101463.06;5021580;28;20054;-64
2021/08/27 08:56:42;;;;;;;;;;;;;;;18.41;59.23;101470.88;5019673;28;20052;-63
2021/08/27 08:59:10;;;;;;;26.27;6.65;;;;;;;18.59;58.97;101463.88;5024943;28;19920;-64
2021/08/27 09:01:38;;;;;;;21.52;6.93;;;;;;;18.34;59.53;101471.41;5032489;28;20050;-67
2021/08/27 09:04:05;;;;;;;15.55;6.18;;;;;;;18.36;59.21;101465.50;5028526;28;20053;-65
2021/08/27 09:06:34;;;;;;;14.73;4.88;;;;;;;18.37;58.59;101464.31;5016029;28;20052;-64
2021/08/27 09:09:01;;;;;;;17.48;5.15;;;;;;;18.28;58.58;101470.00;5029128;28;20400;-66
2021/08/27 09:11:29;;;;;;;12.93;4.90;;;;;;;18.41;57.83;101466.09;5014021;28;20072;-64
2021/08/27 09:13:59;;;;;;;14.48;5.20;;;;;;;18.57;57.59;101467.03;5025455;28;20662;-65
2021/08/27 09:16:34;;;;;;;14.52;4.85;;;;;;;18.58;57.21;101470.66;5032384;28;20045;-65
2021/08/27 09:19:02;;;;;;;13.05;4.72;;;;;;;18.88;56.91;101475.63;5046775;28;20053;-65
2021/08/27 09:21:50;;;;;;;12.98;4.95;;;;;;;18.66;56.63;101472.50;5030316;28;20045;-65
2021/08/27 09:24:25;;;;;;;17.35;4.93;;;;;;;18.79;56.13;101477.72;4992490;28;20053;-64
2021/08/27 09:26:57;;;;;;;15.10;4.50;;;;;;;18.83;54.80;101486.19;5024016;28;20060;-64
2021/08/27 09:29:39;;;;;;;12.63;4.20;;;;;;;18.71;54.98;101475.03;5028436;28;20053;-66
2021/08/27 09:32:17;;;;;;;11.90;3.30;;;;;;;18.97;54.63;101476.31;5028954;28;20630;-65
2021/08/27 09:34:44;;;;;;;12.57;4.05;;;;;;;18.97;54.57;101478.28;5026905;28;20049;-66
2021/08/27 09:37:12;;;;;;;15.35;4.57;;;;;;;19.04;54.25;101475.69;5017572;28;20163;-65
2021/08/27 09:39:39;;;;;;;15.15;4.53;;;;;;;19.01;54.54;101471.66;5023768;28;20060;-66
2021/08/27 09:42:06;;;;;;;12.13;4.45;;;;;;;19.25;54.32;101467.19;5030505;28;20049;-65
2021/08/27 09:44:34;;;;;;;15.32;5.57;;;;;;;19.41;54.19;101477.28;5024369;28;20050;-66
2021/08/27 09:47:07;;;;;;;20.40;5.30;;;;;;;19.20;54.11;101479.41;5003056;28;20050;-66
2021/08/27 09:49:37;;;;;;;11.32;4.05;;;;;;;19.31;53.32;101468.56;5006616;28;20457;-66
2021/08/27 09:52:10;;;;;;;14.05;4.40;;;;;;;19.02;53.22;101480.84;4996233;28;20080;-66
2021/08/27 09:54:40;;;;;;;13.65;3.67;;;;;;;19.00;53.35;101474.81;5029906;28;20049;-66
2021/08/27 09:57:08;;;;;;;17.85;4.20;;;;;;;18.93;52.87;101482.94;5019071;28;20087;-64
2021/08/27 09:59:35;;;;;;;11.50;3.78;;;;;;;18.87;53.34;101482.38;5030790;28;20056;-64
2021/08/27 10:02:08;;;;;;;20.00;4.07;;;;;;;18.69;53.49;101480.19;5018746;28;20050;-65
2021/08/27 10:04:49;;;;;;;13.07;4.10;;;;;;;18.58;54.19;101477.03;5019485;28;20077;-64
2021/08/27 10:07:28;;;;;;;;;;;;;;;18.69;52.84;101474.59;5028052;28;20673;-65
2021/08/27 10:09:59;;;;;;;15.93;4.13;;;;;;;18.72;52.67;101465.53;5025104;28;19922;-66
2021/08/27 10:12:27;;;;;;;7.82;2.92;;;;;;;18.99;52.88;101468.41;5029045;28;20045;-65
2021/08/27 10:14:56;;;;;;;11.60;3.33;;;;;;;18.93;52.35;101469.00;5018909;28;20045;-66
2021/08/27 10:17:23;;;;;;;17.73;4.43;;;;;;;18.74;52.99;101471.56;5028313;28;20057;-69
2021/08/27 10:19:51;;;;;;;12.85;3.60;;;;;;;18.81;53.11;101469.81;5026156;28;20053;-66
2021/08/27 10:22:18;;;;;;;13.70;3.40;;;;;;;18.92;52.85;101465.38;5031498;28;20048;-66
2021/08/27 10:24:46;;;;;;;12.00;3.58;;;;;;;18.82;51.83;101473.41;5032425;28;20057;-66
2021/08/27 10:27:15;;;;;;;10.02;2.65;;;;;;;18.83;51.22;101464.69;5033703;28;20053;-66
2021/08/27 10:29:48;;;;;;;11.35;2.45;;;;;;;18.88;50.76;101456.06;5022358;28;20161;-65
2021/08/27 10:32:38;;;;;;;10.15;2.72;;;;;;;18.90;50.35;101452.91;5015453;28;20046;-67
2021/08/27 10:35:06;;;;;;;7.65;2.15;;;;;;;19.00;49.98;101458.03;5027469;28;20049;-67
2021/08/27 10:37:44;;;;;;;10.27;2.25;;;;;;;18.89;49.27;101454.09;5017347;28;20046;-65
2021/08/27 10:40:23;;;;;;;10.02;2.53;;;;;;;18.82;49.90;101453.88;5031329;28;20548;-64
2021/08/27 10:42:55;;;;;;;6.25;1.90;;;;;;;18.97;49.29;101459.56;5030852;28;20053;-64
2021/08/27 10:45:32;;;;;;;12.85;2.72;;;;;;;19.00;48.64;101450.47;5019519;28;20053;-64
2021/08/27 10:48:19;;;;;;;10.95;2.65;;;;;;;19.11;47.68;101459.16;5033517;28;20434;-63
2021/08/27 10:50:48;;;;;;;6.35;2.13;;;;;;;19.15;47.92;101450.91;5034330;28;20971;-64
2021/08/27 10:53:35;;;;;;;7.72;1.42;;;;;;;19.17;47.95;101454.97;5032668;28;20049;-72
2021/08/27 10:56:10;;;;;;;6.85;1.90;;;;;;;19.19;47.74;101455.44;5015887;28;20065;-64
2021/08/27 10:58:40;;;;;;;7.40;1.80;;;;;;;19.35;47.31;101450.78;5032338;28;20060;-63
2021/08/27 11:01:26;;;;;;;9.35;2.00;;;;;;;19.28;48.05;101458.91;5033512;28;20365;-63
2021/08/27 11:04:00;;;;;;;7.88;2.50;;;;;;;19.51;47.87;101457.19;5033307;28;20072;-65
2021/08/27 11:06:28;;;;;;;12.15;2.47;;;;;;;19.51;48.57;101437.66;5031460;28;20038;-63
2021/08/27 11:09:17;;;;;;;7.90;2.15;;;;;;;19.80;47.37;101445.69;5033972;28;20054;-63
2021/08/27 11:11:45;;;;;;;13.18;2.30;;;;;;;19.79;46.59;101451.59;5023058;28;20512;-63
2021/08/27 11:14:16;;;;;;;5.68;2.10;;;;;;;20.03;46.27;101440.28;5035967;28;20615;-62
2021/08/27 11:16:43;;;;;;;13.68;1.85;;;;;;;20.03;45.66;101451.47;5028934;28;20052;-63
2021/08/27 11:19:31;;;;;;;9.00;2.30;;;;;;;19.75;47.13;101445.91;5033363;28;20064;-63
2021/08/27 11:22:22;;;;;;;15.02;2.38;;;;;;;20.04;46.53;101447.50;5022768;28;20054;-63
2021/08/27 11:25:02;;;;;;;6.72;1.98;;;;;;;20.20;45.65;101436.34;5023560;28;20058;-64
2021/08/27 11:27:30;;;;;;;12.52;2.40;;;;;;;20.12;46.00;101446.50;5024370;28;20061;-63
2021/08/27 11:30:01;;;;;;;8.80;2.30;;;;;;;19.86;46.72;101443.41;5026351;28;20049;-63
2021/08/27 11:32:28;;;;;;;8.88;1.83;;;;;;;19.66;46.67;101448.06;5032776;28;20045;-63